Time;durP1;ratioP1;P1;durP2;ratioP2;P2;SDS_P1;SDS_P2;PMS_P1;PMS_P2;Temp;Humidity;BMP_temperature;BMP_pressure;BME280_temperature;BME280_humidity;BME280_pressure;Samples;Min_cycle;Max_cycle;Signal;HPM_P1;HPM_P2
2023/03/19 00:00:29;;;;;;;24.12;14.75;;;6.30;99.90;5.50;100262;;;;540998;262;35821;-76
2023/03/19 00:02:58;;;;;;;22.90;15.00;;;6.30;99.90;5.50;100266;;;;539455;260;35450;-74
2023/03/19 00:05:27;;;;;;;18.80;11.67;;;6.40;99.90;5.50;100271;;;;542022;263;24143;-75
2023/03/19 00:07:54;;;;;;;19.93;10.57;;;6.40;99.90;5.50;100270;;;;536012;264;24145;-77
2023/03/19 00:10:22;;;;;;;23.73;10.60;;;6.40;99.90;5.60;100274;;;;535853;262;24155;-75
2023/03/19 00:12:50;;;;;;;19.13;10.40;;;6.50;99.90;5.60;100276;;;;535822;264;24152;-76
2023/03/19 00:15:18;;;;;;;21.13;10.63;;;6.50;99.90;5.60;100272;;;;535482;262;24244;-78
2023/03/19 00:17:46;;;;;;;16.70;9.37;;;6.50;99.90;5.60;100273;;;;535493;264;24173;-78
2023/03/19 00:20:18;;;;;;;16.33;9.60;;;6.50;99.90;5.50;100266;;;;543589;262;24128;-75
2023/03/19 00:22:46;;;;;;;17.83;9.17;;;6.40;99.90;5.50;100267;;;;538265;264;24169;-77
2023/03/19 00:25:16;;;;;;;17.57;9.73;;;6.40;99.90;5.40;100270;;;;543234;264;24141;-75
2023/03/19 00:27:45;;;;;;;14.20;9.23;;;6.30;99.90;5.40;100269;;;;542930;262;24168;-77
2023/03/19 00:30:10;;;;;;;20.30;11.03;;;6.30;99.90;5.30;100263;;;;542905;264;24159;-79
2023/03/19 00:32:39;;;;;;;17.87;9.73;;;6.20;99.90;5.30;100272;;;;539815;257;24178;-72
2023/03/19 00:35:06;;;;;;;20.17;10.37;;;6.20;99.90;5.20;100279;;;;551601;257;24094;-77
2023/03/19 00:37:37;;;;;;;22.50;9.57;;;6.10;99.90;5.20;100277;;;;541780;262;24151;-74
2023/03/19 00:40:03;;;;;;;16.90;9.47;;;6.10;99.90;5.20;100274;;;;542019;262;24152;-75
2023/03/19 00:42:33;;;;;;;16.83;9.27;;;6.10;99.90;5.20;100271;;;;551552;257;24148;-76
2023/03/19 00:44:58;;;;;;;16.00;9.13;;;6.10;99.90;5.20;100279;;;;551190;257;24138;-72
2023/03/19 00:47:26;;;;;;;18.60;8.97;;;6.10;99.90;5.20;100271;;;;551455;257;24149;-76
2023/03/19 00:49:58;;;;;;;21.63;9.77;;;6.10;99.90;5.30;100277;;;;559557;254;24143;-76
2023/03/19 00:52:22;;;;;;;15.43;8.67;;;6.10;99.90;5.20;100269;;;;549260;254;24104;-75
2023/03/19 00:54:50;;;;;;;19.37;10.17;;;6.10;99.90;5.30;100275;;;;541610;262;24162;-76
2023/03/19 00:57:18;;;;;;;14.97;9.10;;;6.10;99.90;5.30;100271;;;;541577;262;24202;-77
2023/03/19 00:59:49;;;;;;;18.07;9.40;;;6.20;99.90;5.30;100276;;;;541256;262;24145;-74
2023/03/19 01:02:14;;;;;;;21.77;9.93;;;6.20;99.90;5.30;100272;;;;541418;262;24365;-72
2023/03/19 01:04:44;;;;;;;19.83;10.57;;;6.10;99.90;5.20;100285;;;;559250;254;24161;-73
2023/03/19 01:07:10;;;;;;;18.33;9.20;;;6.10;99.90;5.20;100286;;;;538553;262;24200;-71
2023/03/19 01:09:38;;;;;;;22.67;9.63;;;6.10;99.90;5.20;100294;;;;551465;257;25145;-72
2023/03/19 01:12:06;;;;;;;17.57;8.47;;;6.10;99.90;5.20;100283;;;;541691;262;24135;-72
2023/03/19 01:14:34;;;;;;;19.40;9.33;;;6.10;99.90;5.20;100291;;;;541658;262;24152;-72
2023/03/19 01:17:02;;;;;;;18.67;9.53;;;6.10;99.90;5.20;100288;;;;542919;261;24130;-72
2023/03/19 01:19:30;;;;;;;20.10;9.30;;;6.10;99.90;5.10;100296;;;;542687;262;24171;-73
2023/03/19 01:22:01;;;;;;;16.60;9.17;;;6.00;99.90;5.10;100288;;;;542365;262;25234;-72
2023/03/19 01:24:26;;;;;;;20.37;9.70;;;6.00;99.90;5.10;100288;;;;541902;262;24156;-75
2023/03/19 01:26:54;;;;;;;19.80;10.33;;;6.00;99.90;5.00;100288;;;;559821;256;24106;-73
2023/03/19 01:29:21;;;;;;;23.27;10.77;;;5.90;99.90;5.00;100291;;;;541986;261;24155;-73
2023/03/19 01:31:50;;;;;;;17.27;9.87;;;5.90;99.90;4.90;100294;;;;542271;262;24150;-74
2023/03/19 01:34:17;;;;;;;20.00;10.03;;;5.90;99.90;4.90;100295;;;;541771;262;24116;-73
2023/03/19 01:36:45;;;;;;;17.87;9.37;;;5.80;99.90;4.90;100294;;;;541777;262;24105;-75
2023/03/19 01:39:13;;;;;;;22.27;10.33;;;5.80;99.90;4.80;100293;;;;541852;262;24142;-75
2023/03/19 01:41:41;;;;;;;22.63;10.53;;;5.80;99.90;4.80;100286;;;;541940;262;24139;-77
2023/03/19 01:44:27;;;;;;;16.73;9.57;;;5.70;99.90;4.80;100290;;;;541826;262;24183;-76
2023/03/19 01:46:55;;;;;;;15.43;8.93;;;5.70;99.90;4.80;100288;;;;548233;258;24117;-72
2023/03/19 01:49:26;;;;;;;17.77;10.13;;;5.70;99.90;4.70;100295;;;;548367;258;24119;-75
2023/03/19 01:51:51;;;;;;;16.33;9.77;;;5.60;99.90;4.70;100292;;;;539368;262;24258;-75
2023/03/19 01:54:19;;;;;;;24.13;10.17;;;5.60;99.90;4.60;100291;;;;542288;261;24119;-75
2023/03/19 01:56:47;;;;;;;23.73;10.03;;;5.50;99.90;4.60;100289;;;;542398;261;24145;-77
2023/03/19 01:59:27;;;;;;;20.60;9.87;;;5.50;99.90;4.50;100301;;;;542190;261;24138;-77
2023/03/19 02:01:57;;;;;;;17.27;10.03;;;5.50;99.90;4.50;100299;;;;542439;261;24137;-75
2023/03/19 02:04:26;;;;;;;19.40;9.93;;;5.30;99.90;4.40;100301;;;;542282;261;24185;-76
2023/03/19 02:06:55;;;;;;;19.73;10.10;;;5.30;99.90;4.40;100297;;;;542572;261;24156;-75
2023/03/19 02:09:23;;;;;;;17.37;9.63;;;5.30;99.90;4.30;100299;;;;542752;261;24129;-74
2023/03/19 02:11:53;;;;;;;17.43;10.73;;;5.20;99.90;4.20;100299;;;;542851;257;24146;-75
2023/03/19 02:14:18;;;;;;;22.53;10.37;;;5.20;99.90;4.20;100296;;;;550392;261;24131;-75
2023/03/19 02:16:46;;;;;;;16.10;8.77;;;5.10;99.90;4.10;100293;;;;542834;261;24117;-74
2023/03/19 02:19:14;;;;;;;17.93;9.53;;;5.00;99.90;4.10;100301;;;;550801;258;24127;-72
2023/03/19 02:21:46;;;;;;;17.17;9.53;;;5.00;99.90;4.10;100290;;;;550964;257;24106;-73
2023/03/19 02:24:23;;;;;;;19.93;10.10;;;5.00;99.90;4.00;100288;;;;551032;257;24099;-77
2023/03/19 02:26:47;;;;;;;23.60;10.17;;;4.90;99.90;4.00;100295;;;;538114;260;24162;-73
2023/03/19 02:29:15;;;;;;;19.63;9.67;;;4.90;99.90;3.90;100287;;;;539590;259;24194;-72
2023/03/19 02:31:47;;;;;;;26.40;15.40;;;4.80;99.90;3.90;100292;;;;555244;253;35348;-72
2023/03/19 02:34:22;;;;;;;23.50;12.00;;;4.80;99.90;4.00;100291;;;;541870;262;24180;-73
2023/03/19 02:36:53;;;;;;;23.90;16.15;;;4.90;99.90;4.00;100286;;;;546874;257;35404;-75
2023/03/19 02:39:49;;;;;;;22.07;12.73;;;4.90;99.90;4.00;100288;;;;550694;255;24217;-74
2023/03/19 02:42:17;;;;;;;22.10;10.23;;;4.90;99.90;4.00;100283;;;;542084;258;24144;-73
2023/03/19 02:44:45;;;;;;;18.23;10.60;;;5.00;99.90;4.10;100282;;;;549348;257;24101;-75
2023/03/19 02:47:15;;;;;;;20.80;9.60;;;5.00;99.90;4.10;100281;;;;541602;262;24151;-72
2023/03/19 02:49:40;;;;;;;21.67;10.93;;;5.00;99.90;4.10;100285;;;;541346;262;24147;-71
2023/03/19 02:52:08;;;;;;;21.57;9.67;;;5.00;99.90;4.10;100289;;;;549365;254;24111;-72
2023/03/19 02:54:36;;;;;;;16.73;9.37;;;5.10;99.90;4.10;100283;;;;559698;253;24104;-72
2023/03/19 02:57:05;;;;;;;15.27;9.60;;;5.10;99.90;4.10;100294;;;;541391;262;24123;-72
2023/03/19 02:59:37;;;;;;;19.90;11.03;;;5.00;99.90;4.10;100283;;;;541766;262;24165;-77
2023/03/19 03:02:02;;;;;;;20.30;9.97;;;5.00;99.90;4.10;100289;;;;541580;262;24273;-74
2023/03/19 03:04:29;;;;;;;26.87;10.33;;;5.00;99.90;4.10;100288;;;;551360;257;24099;-72
2023/03/19 03:06:57;;;;;;;16.33;9.50;;;5.00;99.90;4.00;100284;;;;559439;254;24160;-74
2023/03/19 03:09:26;;;;;;;20.13;11.03;;;5.00;99.90;4.00;100286;;;;541553;262;24120;-77
2023/03/19 03:11:53;;;;;;;18.30;9.30;;;5.00;99.90;4.00;100288;;;;548884;257;24117;-76
2023/03/19 03:14:25;;;;;;;16.73;10.40;;;5.00;99.90;4.00;100289;;;;559237;253;24161;-73
2023/03/19 03:16:49;;;;;;;20.00;10.43;;;5.00;99.90;4.00;100288;;;;557716;257;24150;-76
2023/03/19 03:19:20;;;;;;;25.53;10.80;;;5.00;99.90;4.10;100290;;;;546194;259;24144;-73
2023/03/19 03:21:46;;;;;;;22.80;11.43;;;5.00;99.90;4.10;100293;;;;545882;259;24159;-75
2023/03/19 03:24:14;;;;;;;23.60;11.43;;;5.00;99.90;4.10;100287;;;;551205;257;24116;-77
2023/03/19 03:26:43;;;;;;;23.07;11.50;;;5.00;99.90;4.10;100291;;;;551380;257;24158;-72
2023/03/19 03:29:12;;;;;;;19.47;11.17;;;5.00;99.90;4.00;100290;;;;551048;255;24132;-72
2023/03/19 03:31:37;;;;;;;19.87;9.93;;;5.00;99.90;4.00;100292;;;;550999;257;24177;-73
2023/03/19 03:34:06;;;;;;;22.23;11.37;;;4.90;99.90;4.00;100293;;;;551112;257;24116;-72
2023/03/19 03:36:34;;;;;;;22.63;11.63;;;4.90;99.90;4.00;100295;;;;551306;257;24265;-74
2023/03/19 03:39:03;;;;;;;24.50;11.40;;;4.90;99.90;3.90;100315;;;;551668;255;24109;-72
2023/03/19 03:41:30;;;;;;;21.23;10.60;;;4.80;99.90;3.80;100308;;;;550193;257;24174;-73
2023/03/19 03:44:00;;;;;;;24.43;12.10;;;4.80;99.90;3.70;100304;;;;548443;255;24190;-72
2023/03/19 03:46:25;;;;;;;20.33;11.10;;;4.70;99.90;3.70;100301;;;;556020;256;24133;-72
2023/03/19 03:48:54;;;;;;;20.47;11.80;;;4.50;99.90;3.60;100308;;;;548111;255;24234;-72
2023/03/19 03:51:23;;;;;;;20.40;10.63;;;4.50;99.90;3.50;100306;;;;547857;257;24143;-72
2023/03/19 03:53:51;;;;;;;17.43;10.30;;;4.40;99.90;3.50;100303;;;;548380;255;24120;-75
2023/03/19 03:56:20;;;;;;;21.50;12.23;;;4.40;99.90;3.40;100302;;;;547962;258;24144;-73
2023/03/19 03:58:47;;;;;;;23.93;11.37;;;4.30;99.90;3.40;100301;;;;547760;258;24137;-76
2023/03/19 04:01:15;;;;;;;24.80;13.63;;;4.30;99.90;3.30;100295;;;;548012;258;24120;-79
2023/03/19 04:03:44;;;;;;;25.83;12.83;;;4.30;99.90;3.30;100292;;;;547992;258;24194;-77
2023/03/19 04:06:17;;;;;;;28.33;12.47;;;4.20;99.90;3.30;100296;;;;547981;258;24245;-78
2023/03/19 04:08:45;;;;;;;33.63;19.92;;;4.20;99.90;3.20;100294;;;;542186;258;35553;-76
2023/03/19 04:11:13;;;;;;;25.00;14.10;;;4.10;99.90;3.20;100308;;;;548102;258;24173;-75
2023/03/19 04:13:41;;;;;;;24.63;13.83;;;4.20;99.90;3.20;100295;;;;547778;258;24165;-72
2023/03/19 04:16:09;;;;;;;24.87;11.60;;;4.20;99.90;3.20;100299;;;;547488;258;24128;-72
2023/03/19 04:18:37;;;;;;;21.40;11.37;;;4.10;99.90;3.30;100300;;;;547572;258;24137;-73
2023/03/19 04:21:08;;;;;;;18.60;11.03;;;4.20;99.90;3.30;100304;;;;547489;258;24127;-76
2023/03/19 04:23:37;;;;;;;19.97;11.17;;;4.20;99.90;3.30;100294;;;;547312;258;24164;-74
2023/03/19 04:26:02;;;;;;;24.27;10.87;;;4.20;99.90;3.40;100301;;;;549414;258;24132;-73
2023/03/19 04:28:32;;;;;;;20.17;8.90;;;4.30;99.90;3.40;100297;;;;547487;258;24201;-78
2023/03/19 04:31:04;;;;;;;25.75;16.33;;;4.40;99.90;3.50;100303;;;;550427;258;35576;-74
2023/03/19 04:33:32;;;;;;;22.90;13.33;;;4.40;99.90;3.60;100302;;;;547125;258;24120;-74
2023/03/19 04:35:56;;;;;;;20.07;10.97;;;4.50;99.90;3.70;100306;;;;547413;258;24137;-78
2023/03/19 04:38:28;;;;;;;25.97;12.03;;;4.70;99.90;3.80;100308;;;;547527;258;24161;-78
2023/03/19 04:40:56;;;;;;;23.03;11.00;;;4.70;99.90;3.90;100311;;;;555551;255;24131;-77
2023/03/19 04:43:24;;;;;;;21.00;11.37;;;4.80;99.90;4.00;100308;;;;547626;258;24153;-72
2023/03/19 04:45:52;;;;;;;24.10;11.63;;;4.90;99.90;4.00;100319;;;;547424;258;24152;-71
2023/03/19 04:48:21;;;;;;;28.13;12.00;;;5.00;99.90;4.10;100314;;;;547563;258;24134;-76
2023/03/19 04:50:55;;;;;;;20.97;10.53;;;5.00;99.90;4.10;100311;;;;548152;257;24115;-75
2023/03/19 04:53:19;;;;;;;22.90;10.53;;;5.00;99.90;4.10;100308;;;;547924;257;24147;-73
2023/03/19 04:55:46;;;;;;;19.60;11.17;;;5.00;99.90;4.10;100306;;;;549349;257;25151;-74
2023/03/19 04:58:16;;;;;;;21.33;11.33;;;5.00;99.90;4.10;100308;;;;542514;261;24128;-74
2023/03/19 05:00:45;;;;;;;18.83;11.50;;;5.00;99.90;4.20;100306;;;;552887;258;24146;-72
2023/03/19 05:03:10;;;;;;;23.33;12.10;;;5.10;99.90;4.10;100297;;;;547466;258;24141;-74
2023/03/19 05:05:37;;;;;;;21.43;12.27;;;5.10;99.90;4.10;100303;;;;555606;258;24145;-73
2023/03/19 05:08:06;;;;;;;23.20;12.30;;;5.00;99.90;4.20;100289;;;;555629;257;24163;-73
2023/03/19 05:10:33;;;;;;;20.03;9.63;;;5.00;99.90;4.20;100295;;;;555408;258;24141;-73
2023/03/19 05:13:04;;;;;;;21.80;12.03;;;5.10;99.90;4.20;100300;;;;547418;258;24104;-72
2023/03/19 05:15:29;;;;;;;22.33;11.40;;;5.10;99.90;4.20;100297;;;;555469;258;24156;-71
2023/03/19 05:17:57;;;;;;;25.93;11.93;;;5.10;99.90;4.20;100300;;;;555806;258;24107;-71
2023/03/19 05:20:25;;;;;;;23.30;11.93;;;5.10;99.90;4.30;100297;;;;555801;258;24252;-71
2023/03/19 05:22:53;;;;;;;20.93;12.67;;;5.20;99.90;4.30;100289;;;;555684;258;24145;-72
2023/03/19 05:25:21;;;;;;;20.87;12.23;;;5.20;99.90;4.30;100293;;;;547773;258;24139;-72
2023/03/19 05:27:49;;;;;;;23.83;11.27;;;5.20;99.90;4.40;100292;;;;555567;258;24137;-71
2023/03/19 05:30:17;;;;;;;20.30;11.30;;;5.30;99.90;4.50;100293;;;;555534;258;24175;-71
2023/03/19 05:32:45;;;;;;;21.97;12.17;;;5.40;99.90;4.60;100292;;;;555567;258;24214;-73
2023/03/19 05:35:17;;;;;;;22.60;12.20;;;5.50;99.90;4.70;100298;;;;547254;258;24171;-72
2023/03/19 05:37:44;;;;;;;25.53;12.17;;;5.50;99.90;4.80;100301;;;;555085;258;24131;-71
2023/03/19 05:40:09;;;;;;;28.00;12.13;;;5.60;99.90;4.90;100313;;;;547365;258;24164;-71
2023/03/19 05:42:40;;;;;;;21.17;12.50;;;5.80;99.90;5.00;100311;;;;547484;258;24162;-71
2023/03/19 05:45:05;;;;;;;29.75;18.30;;;5.90;99.90;5.10;100309;;;;550460;258;35636;-71
2023/03/19 05:47:33;;;;;;;26.23;15.27;;;6.00;99.90;5.20;100315;;;;555588;257;24160;-71
2023/03/19 05:50:01;;;;;;;23.90;14.77;;;6.10;99.90;5.30;100322;;;;555406;258;24118;-71
2023/03/19 05:52:32;;;;;;;23.87;14.07;;;6.30;99.90;5.40;100322;;;;555563;258;24141;-71
2023/03/19 05:54:57;;;;;;;26.93;14.67;;;6.30;99.90;5.50;100323;;;;547048;258;24116;-72
2023/03/19 05:57:25;;;;;;;27.80;15.27;;;6.40;99.90;5.60;100318;;;;555325;254;24132;-73
2023/03/19 05:59:53;;;;;;;27.77;12.73;;;6.50;99.90;5.80;100323;;;;555241;258;24124;-73
2023/03/19 06:02:21;;;;;;;30.17;13.90;;;6.70;99.90;6.00;100335;;;;555856;257;24127;-73
2023/03/19 06:04:50;;;;;;;34.60;15.27;;;7.10;99.90;6.20;100335;;;;556392;257;24132;-72
2023/03/19 06:07:18;;;;;;;37.00;15.50;;;7.10;99.90;6.40;100323;;;;555983;257;24187;-71
2023/03/19 06:09:46;;;;;;;29.83;14.87;;;7.30;99.90;6.60;100332;;;;556026;258;24174;-71
2023/03/19 06:12:15;;;;;;;29.93;16.13;;;7.60;99.90;6.70;100338;;;;555705;257;24191;-71
2023/03/19 06:14:42;;;;;;;31.07;15.27;;;7.60;99.90;6.90;100323;;;;546659;261;24138;-72
2023/03/19 06:17:11;;;;;;;29.33;16.13;;;7.80;99.90;7.20;100332;;;;542468;262;24185;-72
2023/03/19 06:19:38;;;;;;;43.20;19.77;;;8.00;99.90;7.40;100339;;;;542510;262;24167;-72
2023/03/19 06:22:09;;;;;;;40.97;19.47;;;8.20;99.90;7.60;100337;;;;542365;262;24170;-71
2023/03/19 06:24:37;;;;;;;36.47;17.40;;;8.40;99.90;7.80;100338;;;;550648;253;24101;-72
2023/03/19 06:27:06;;;;;;;32.37;17.37;;;8.60;99.90;8.00;100343;;;;549876;261;24137;-72
2023/03/19 06:29:30;;;;;;;29.87;17.53;;;8.90;99.90;8.30;100339;;;;540000;262;24144;-73
2023/03/19 06:31:58;;;;;;;30.60;15.67;;;9.10;99.90;8.60;100347;;;;542266;259;24199;-74
2023/03/19 06:34:26;;;;;;;30.47;15.93;;;9.30;99.90;8.90;100350;;;;542218;262;24187;-75
2023/03/19 06:36:54;;;;;;;33.43;17.50;;;9.60;99.90;9.50;100347;;;;550091;258;24122;-75
2023/03/19 06:39:22;;;;;;;29.83;15.13;;;10.10;99.90;10.60;100353;;;;550353;257;24179;-72
2023/03/19 06:41:53;;;;;;;23.43;14.87;;;11.10;99.90;11.20;100352;;;;534362;266;24171;-74
2023/03/19 06:44:17;;;;;;;27.73;15.33;;;11.80;99.90;11.30;100358;;;;548383;257;24120;-78
2023/03/19 06:46:45;;;;;;;25.33;15.13;;;12.00;99.90;11.20;100350;;;;551406;257;24099;-78
2023/03/19 06:49:14;;;;;;;25.23;14.87;;;12.10;99.90;11.20;100360;;;;541589;262;24147;-74
2023/03/19 06:51:44;;;;;;;24.53;14.83;;;12.10;99.90;11.30;100354;;;;541978;262;24111;-76
2023/03/19 06:54:09;;;;;;;32.60;15.73;;;12.20;99.90;11.50;100363;;;;551151;257;24113;-74
2023/03/19 06:56:37;;;;;;;24.67;15.07;;;12.30;99.90;11.70;100368;;;;541380;262;24183;-75
2023/03/19 06:59:05;;;;;;;25.23;14.80;;;12.40;99.90;11.90;100369;;;;541343;262;24150;-80
2023/03/19 07:01:33;;;;;;;23.40;14.97;;;12.60;99.90;12.10;100377;;;;541250;262;24133;-80
2023/03/19 07:04:01;;;;;;;23.13;14.00;;;12.80;99.90;12.20;100374;;;;541364;262;26309;-79
2023/03/19 07:06:29;;;;;;;23.33;14.40;;;12.90;99.90;12.60;100381;;;;541424;262;24164;-79
2023/03/19 07:08:57;;;;;;;25.97;13.47;;;13.20;99.90;13.30;100379;;;;541442;262;24114;-79
2023/03/19 07:11:25;;;;;;;23.40;14.90;;;13.80;99.90;13.90;100386;;;;541401;262;24131;-79
2023/03/19 07:13:52;;;;;;;22.33;14.10;;;14.50;99.90;14.70;100389;;;;541902;261;24184;-79
2023/03/19 07:16:20;;;;;;;21.93;13.53;;;15.10;99.90;15.50;100388;;;;542372;261;24165;-80
2023/03/19 07:18:49;;;;;;;22.60;14.10;;;16.60;98.30;16.10;100394;;;;542177;261;24306;-79
2023/03/19 07:21:18;;;;;;;22.73;14.80;;;16.80;96.30;16.20;100401;;;;545317;259;24097;-80
2023/03/19 07:23:46;;;;;;;20.13;14.70;;;17.00;94.10;16.30;100391;;;;545069;260;24097;-79
2023/03/19 07:26:15;;;;;;;32.13;14.20;;;17.20;93.50;16.60;100400;;;;545093;260;24127;-77
2023/03/19 07:28:43;;;;;;;27.47;16.07;;;17.20;93.50;17.20;100397;;;;544828;260;24120;-77
2023/03/19 07:31:11;;;;;;;23.13;15.47;;;17.70;91.30;17.80;100395;;;;545027;260;24089;-79
2023/03/19 07:33:43;;;;;;;25.50;15.40;;;18.90;87.30;18.50;100401;;;;538984;262;24186;-79
2023/03/19 07:36:08;;;;;;;23.37;15.53;;;19.80;83.20;19.30;100407;;;;558319;257;24072;-80
2023/03/19 07:38:36;;;;;;;19.47;15.43;;;19.70;83.10;20.20;100410;;;;539653;262;24163;-77
2023/03/19 07:41:04;;;;;;;21.30;16.33;;;20.70;80.10;21.40;100419;;;;542320;258;24115;-76
2023/03/19 07:43:33;;;;;;;23.13;16.37;;;22.90;72.80;22.40;100418;;;;551535;257;24083;-79
2023/03/19 07:46:02;;;;;;;22.80;15.97;;;23.70;68.80;23.20;100424;;;;553762;255;24130;-75
2023/03/19 07:48:30;;;;;;;27.47;15.17;;;24.50;64.30;23.90;100419;;;;535671;262;24212;-74
2023/03/19 07:50:58;;;;;;;24.67;15.33;;;24.40;64.10;24.50;100430;;;;536425;262;23210;-75
2023/03/19 07:53:26;;;;;;;22.43;14.53;;;25.10;62.00;25.10;100429;;;;537751;262;23136;-79
2023/03/19 07:55:55;;;;;;;23.13;14.93;;;26.50;57.70;25.90;100434;;;;537330;263;23159;-76
2023/03/19 07:58:23;;;;;;;18.83;13.23;;;26.40;57.50;26.70;100437;;;;544684;260;24135;-79
2023/03/19 08:00:51;;;;;;;16.63;12.73;;;27.20;55.90;27.70;100437;;;;548421;260;24170;-77
2023/03/19 08:03:21;;;;;;;14.63;12.15;;;28.20;53.70;28.70;100435;;;;545271;259;23147;-74
2023/03/19 08:05:47;;;;;;;17.12;12.70;;;30.30;50.00;29.70;100442;;;;538221;258;24109;-78
2023/03/19 08:08:19;;;;;;;14.38;12.85;;;30.10;49.80;30.30;100442;;;;540080;262;24155;-77
2023/03/19 08:10:47;;;;;;;15.65;13.02;;;30.90;48.60;31.20;100442;;;;539697;262;24392;-76
2023/03/19 08:13:12;;;;;;;15.43;13.73;;;31.80;47.40;32.10;100448;;;;550650;257;23127;-75
2023/03/19 08:15:40;;;;;;;15.48;13.88;;;33.50;44.80;32.90;100440;;;;539134;262;23129;-73
2023/03/19 08:18:09;;;;;;;17.20;13.18;;;34.30;43.10;33.70;100439;;;;550925;257;23171;-74
2023/03/19 08:20:37;;;;;;;15.65;12.88;;;34.90;42.20;34.20;100445;;;;551400;257;23105;-76
2023/03/19 08:23:09;;;;;;;16.37;14.68;;;35.60;40.70;35.00;100449;;;;546535;257;35437;-73
2023/03/19 08:25:35;;;;;;;17.77;14.65;;;36.00;40.10;35.20;100445;;;;542494;261;23130;-75
2023/03/19 08:28:02;;;;;;;17.45;13.07;;;36.00;40.00;35.70;100443;;;;552396;257;24116;-74
2023/03/19 08:30:30;;;;;;;17.05;13.82;;;36.40;39.40;36.00;100451;;;;551915;256;23154;-74
2023/03/19 08:32:58;;;;;;;14.25;12.85;;;36.80;38.90;36.20;100444;;;;551952;257;23104;-74
2023/03/19 08:35:26;;;;;;;15.10;13.55;;;36.90;38.30;36.50;100450;;;;551131;258;23149;-74
2023/03/19 08:37:57;;;;;;;15.75;14.05;;;37.20;37.70;36.30;100449;;;;554870;256;23155;-76
2023/03/19 08:40:22;;;;;;;16.45;14.63;;;37.30;37.20;36.30;100444;;;;549736;257;23093;-74
2023/03/19 08:42:50;;;;;;;20.15;15.43;;;37.30;37.00;36.10;100447;;;;553923;256;23130;-75
2023/03/19 08:45:21;;;;;;;19.77;16.87;;;37.30;37.00;35.70;100456;;;;535313;263;23150;-74
2023/03/19 08:47:52;;;;;;;19.23;17.02;;;37.10;36.80;35.50;100454;;;;546066;257;24187;-76
2023/03/19 08:50:17;;;;;;;19.30;17.02;;;36.80;37.00;35.20;100460;;;;538466;262;23132;-72
2023/03/19 08:52:45;;;;;;;19.85;16.60;;;36.50;37.10;35.20;100458;;;;546666;258;23150;-74
2023/03/19 08:55:13;;;;;;;17.90;15.02;;;36.40;37.20;35.30;100458;;;;548125;257;23164;-74
2023/03/19 08:57:41;;;;;;;18.27;15.55;;;36.40;37.20;34.70;100463;;;;548051;258;23207;-76
2023/03/19 09:00:09;;;;;;;20.30;15.48;;;36.20;37.20;34.40;100448;;;;556692;252;24164;-73
2023/03/19 09:02:37;;;;;;;19.42;16.12;;;35.80;37.60;34.50;100453;;;;548122;258;23127;-76
2023/03/19 09:05:06;;;;;;;19.98;14.60;;;35.80;38.10;35.00;100455;;;;548265;258;23119;-74
2023/03/19 09:07:33;;;;;;;19.25;14.45;;;36.10;37.30;35.40;100455;;;;548164;256;23119;-75
2023/03/19 09:10:01;;;;;;;14.63;13.07;;;36.70;36.50;35.60;100462;;;;548121;256;23266;-74
2023/03/19 09:12:33;;;;;;;16.17;14.30;;;36.80;36.40;35.70;100457;;;;548258;258;23177;-79
2023/03/19 09:14:58;;;;;;;14.65;12.95;;;36.80;36.30;35.90;100461;;;;548137;258;23177;-78
2023/03/19 09:17:26;;;;;;;20.27;14.68;;;37.00;36.40;36.20;100461;;;;547779;258;24168;-78
2023/03/19 09:19:55;;;;;;;19.27;15.32;;;37.50;35.50;36.30;100468;;;;556559;254;23116;-78
2023/03/19 09:22:23;;;;;;;17.98;15.55;;;37.50;35.50;36.00;100456;;;;541024;262;23136;-78
2023/03/19 09:24:51;;;;;;;16.25;14.52;;;37.40;36.40;35.60;100469;;;;538384;260;23180;-76
2023/03/19 09:27:19;;;;;;;16.30;14.60;;;37.20;35.40;35.50;100469;;;;543845;255;23184;-74
2023/03/19 09:29:46;;;;;;;16.45;14.73;;;37.00;35.50;35.20;100467;;;;537147;263;23249;-77
2023/03/19 09:32:14;;;;;;;16.95;15.23;;;36.80;35.40;34.80;100470;;;;545722;258;23166;-81
2023/03/19 09:34:42;;;;;;;19.33;16.60;;;36.40;35.90;34.40;100464;;;;543156;262;23185;-76
2023/03/19 09:37:10;;;;;;;19.30;16.35;;;36.00;36.20;33.70;100471;;;;542372;261;23174;-79
2023/03/19 09:39:39;;;;;;;20.17;17.10;;;34.50;37.70;32.60;100470;;;;545320;258;23155;-81
2023/03/19 09:42:19;;;;;;;20.37;17.77;;;33.30;38.40;31.30;100477;;;;547261;259;23153;-80
2023/03/19 09:44:51;;;;;;;21.42;19.23;;;33.30;38.30;30.20;100468;;;;542738;261;23178;-74
2023/03/19 09:47:33;;;;;;;24.02;20.85;;;32.10;39.40;29.70;100469;;;;550084;256;35502;-75
2023/03/19 09:50:10;;;;;;;23.83;19.83;;;31.50;40.20;29.20;100460;;;;546727;259;23114;-77
2023/03/19 09:52:44;;;;;;;22.55;19.92;;;31.00;40.90;28.90;100463;;;;547126;259;23125;-78
2023/03/19 09:55:27;;;;;;;23.42;19.62;;;30.30;41.60;28.70;100462;;;;559375;257;23101;-78
2023/03/19 09:57:55;;;;;;;22.90;19.67;;;30.20;41.50;28.70;100460;;;;538091;262;23173;-75
2023/03/19 10:00:26;;;;;;;25.33;19.27;;;30.10;42.00;28.90;100454;;;;547873;257;23145;-73
2023/03/19 10:03:27;;;;;;;21.95;18.73;;;30.10;42.20;29.30;100450;;;;548689;259;24102;-82
2023/03/19 10:05:58;;;;;;;21.50;17.70;;;30.50;41.80;29.10;100460;;;;546831;258;23137;-74
2023/03/19 10:08:41;;;;;;;19.70;17.37;;;30.40;41.80;28.50;100455;;;;551556;257;23170;-77
2023/03/19 10:11:36;;;;;;;18.67;16.62;;;30.00;42.10;28.30;100461;;;;539248;262;23142;-78
2023/03/19 10:14:10;;;;;;;19.27;16.95;;;29.80;42.70;28.40;100457;;;;537479;261;23194;-79
2023/03/19 10:16:38;;;;;;;19.37;16.02;;;29.80;42.70;28.20;100451;;;;539295;262;23152;-75
2023/03/19 10:19:06;;;;;;;13.70;12.13;;;29.60;42.60;28.40;100445;;;;529931;267;23261;-79
2023/03/19 10:21:43;;;;;;;14.65;12.80;;;29.70;42.20;28.10;100448;;;;542268;256;23169;-80
2023/03/19 10:24:32;;;;;;;14.50;12.45;;;29.50;42.80;28.10;100447;;;;545960;262;23214;-78
2023/03/19 10:27:03;;;;;;;16.48;12.77;;;29.10;42.70;28.00;100448;;;;536758;259;23236;-75
2023/03/19 10:29:33;;;;;;;14.15;12.20;;;29.20;42.70;27.40;100448;;;;538605;261;23141;-76
2023/03/19 10:32:26;;;;;;;19.67;11.88;;;28.70;43.60;27.00;100445;;;;551305;252;23096;-77
2023/03/19 10:34:57;;;;;;;15.57;12.20;;;28.20;44.30;26.30;100448;;;;541025;259;23177;-79
2023/03/19 10:37:21;;;;;;;14.70;12.25;;;27.40;45.10;25.70;100444;;;;553445;258;23155;-76
2023/03/19 10:39:49;;;;;;;14.90;12.47;;;26.80;45.90;25.60;100428;;;;544704;262;23221;-74
2023/03/19 10:42:47;;;;;;;16.17;12.52;;;26.50;46.70;25.20;100434;;;;546209;259;23150;-74
2023/03/19 10:45:27;;;;;;;19.33;13.37;;;26.10;47.20;24.50;100440;;;;545904;259;23127;-76
2023/03/19 10:47:56;;;;;;;17.47;13.07;;;25.40;47.40;23.60;100436;;;;539438;260;23149;-74
2023/03/19 10:50:22;;;;;;;22.10;13.17;;;24.50;48.50;22.70;100430;;;;550389;256;23153;-75
2023/03/19 10:52:51;;;;;;;14.83;12.53;;;23.60;50.40;22.00;100425;;;;550194;261;23179;-75
2023/03/19 10:55:27;;;;;;;17.48;13.95;;;22.80;52.10;21.50;100431;;;;554873;254;35351;-73
2023/03/19 10:57:52;;;;;;;17.83;11.60;;;22.10;53.60;21.10;100434;;;;549631;258;24146;-75
2023/03/19 11:00:21;;;;;;;19.30;12.63;;;21.60;54.90;20.70;100429;;;;550027;258;24167;-75
2023/03/19 11:02:52;;;;;;;16.97;10.67;;;21.20;55.00;20.30;100426;;;;559270;256;24225;-73
2023/03/19 11:05:28;;;;;;;15.70;12.13;;;20.80;56.00;20.10;100425;;;;542183;262;24255;-74
2023/03/19 11:08:03;;;;;;;17.80;13.20;;;20.30;57.80;19.80;100419;;;;541866;258;35731;-74
2023/03/19 11:10:31;;;;;;;21.07;12.27;;;20.20;57.70;19.70;100416;;;;538755;262;24204;-74
2023/03/19 11:13:05;;;;;;;14.97;11.03;;;20.00;58.10;19.50;100408;;;;538771;262;24148;-74